createdAt,value
2023-04-20T00:02:53.559Z,0
2023-04-20T00:09:13.474Z,0
2023-04-20T00:15:36.354Z,0
2023-04-20T00:21:56.374Z,0
2023-04-20T00:28:19.410Z,0
2023-04-20T00:34:39.526Z,0
2023-04-20T00:41:02.388Z,0
2023-04-20T00:47:22.514Z,0
2023-04-20T00:53:45.443Z,0
2023-04-20T01:00:05.497Z,0
2023-04-20T01:06:28.422Z,0
2023-04-20T01:12:48.471Z,0
2023-04-20T01:19:11.375Z,0
2023-04-20T01:25:31.418Z,0
2023-04-20T01:31:54.382Z,0
2023-04-20T01:38:14.386Z,0
2023-04-20T01:44:37.382Z,0
2023-04-20T01:50:57.505Z,0
2023-04-20T01:57:20.463Z,0
2023-04-20T02:03:40.515Z,0
2023-04-20T02:10:03.492Z,0
2023-04-20T02:16:23.447Z,0
2023-04-20T02:22:46.472Z,0
2023-04-20T02:29:06.432Z,0
2023-04-20T02:35:29.342Z,0
2023-04-20T02:41:49.468Z,0
2023-04-20T02:48:12.471Z,0
2023-04-20T02:54:32.376Z,0
2023-04-20T03:00:55.359Z,0
2023-04-20T03:07:16.571Z,0
2023-04-20T03:30:03.381Z,0
2023-04-20T03:36:26.308Z,0
2023-04-20T03:42:46.373Z,0
2023-04-20T03:49:09.356Z,0
2023-04-20T03:55:29.370Z,0
2023-04-20T04:01:52.434Z,1
2023-04-20T04:08:12.461Z,1
2023-04-20T04:14:35.343Z,5
2023-04-20T04:20:55.465Z,12
2023-04-20T04:27:18.377Z,22
2023-04-20T04:33:38.423Z,42
2023-04-20T04:40:01.365Z,64
2023-04-20T04:46:21.532Z,98
2023-04-20T04:52:44.416Z,154
2023-04-20T04:59:04.440Z,184
2023-04-20T05:05:27.499Z,254
2023-04-20T05:11:47.405Z,290
2023-04-20T05:18:10.393Z,349
2023-04-20T05:24:30.410Z,344
2023-04-20T05:30:53.451Z,472
2023-04-20T05:37:13.392Z,680
2023-04-20T05:43:36.465Z,557
2023-04-20T05:49:56.359Z,448
2023-04-20T05:56:19.467Z,525
2023-04-20T06:02:39.588Z,674
2023-04-20T06:09:02.457Z,585
2023-04-20T06:15:22.371Z,690
2023-04-20T06:21:45.419Z,1298
2023-04-20T06:28:05.358Z,958
2023-04-20T06:34:28.434Z,473
2023-04-20T06:40:48.464Z,730
2023-04-20T06:47:11.519Z,989
2023-04-20T06:53:31.425Z,1277
2023-04-20T06:59:54.449Z,2028
2023-04-20T07:06:14.413Z,2124
2023-04-20T07:12:37.368Z,2426
2023-04-20T07:18:57.522Z,2762
2023-04-20T07:25:20.662Z,3232
2023-04-20T07:31:40.741Z,2753
2023-04-20T07:38:03.507Z,2589
2023-04-20T07:44:23.358Z,2538
2023-04-20T07:50:46.394Z,2471
2023-04-20T07:57:06.547Z,2993
2023-04-20T08:03:29.488Z,3284
2023-04-20T08:09:49.390Z,3968
2023-04-20T08:32:37.367Z,4259
2023-04-20T08:38:57.298Z,2533
2023-04-20T08:45:20.358Z,1334
2023-04-20T08:51:40.464Z,2808
2023-04-20T08:58:03.424Z,3242
2023-04-20T09:04:23.697Z,3639
2023-04-20T09:10:46.646Z,3533
2023-04-20T09:17:06.416Z,3727
2023-04-20T09:23:29.512Z,4199
2023-04-20T09:29:49.406Z,4771
2023-04-20T09:36:12.372Z,3934
2023-04-20T09:42:32.625Z,2190
2023-04-20T09:48:55.498Z,4213
2023-04-20T09:55:15.354Z,5474
2023-04-20T10:01:38.458Z,5040
2023-04-20T10:07:58.377Z,4696
2023-04-20T10:14:21.379Z,5168
2023-04-20T10:20:41.353Z,4228
2023-04-20T10:27:04.410Z,4991
2023-04-20T10:33:24.364Z,3710
2023-04-20T10:39:47.377Z,2792
2023-04-20T10:46:07.466Z,4434
2023-04-20T10:52:30.508Z,5009
2023-04-20T10:58:50.367Z,4830
2023-04-20T11:05:13.534Z,4603
2023-04-20T11:11:33.580Z,5264
2023-04-20T11:17:56.448Z,4155
2023-04-20T11:24:16.750Z,6770
2023-04-20T11:30:39.359Z,4845
2023-04-20T11:36:59.455Z,5310
2023-04-20T11:43:22.534Z,5762
2023-04-20T11:49:42.520Z,5570
2023-04-20T11:56:05.343Z,8124
2023-04-20T12:02:25.569Z,7135
2023-04-20T12:08:48.340Z,6733
2023-04-20T12:15:08.330Z,6776
2023-04-20T12:21:31.425Z,6307
2023-04-20T12:27:51.335Z,5486
2023-04-20T12:34:14.384Z,4845
2023-04-20T12:40:34.397Z,4257
2023-04-20T12:46:57.395Z,5626
2023-04-20T12:53:17.380Z,9238
2023-04-20T12:59:40.383Z,10963
2023-04-20T13:06:00.382Z,4234
2023-04-20T13:12:23.334Z,3972
2023-04-20T13:18:43.388Z,7966
2023-04-20T13:25:06.365Z,8189
2023-04-20T13:40:37.315Z,2803
2023-04-20T13:46:57.325Z,3349
2023-04-20T13:53:20.348Z,3113
2023-04-20T13:59:40.446Z,3682
2023-04-20T14:06:03.432Z,4961
2023-04-20T14:12:23.432Z,3642
2023-04-20T14:18:46.414Z,3609
2023-04-20T14:25:06.428Z,3635
2023-04-20T14:31:29.472Z,4565
2023-04-20T14:37:49.420Z,4285
2023-04-20T14:44:12.468Z,5553
2023-04-20T14:50:32.344Z,4653
2023-04-20T14:56:55.380Z,6995
2023-04-20T15:03:15.488Z,6013
2023-04-20T15:09:38.374Z,6411
2023-04-20T15:15:58.416Z,5069
2023-04-20T15:22:21.584Z,5285
2023-04-20T15:28:41.403Z,6303
2023-04-20T15:35:04.368Z,6846
2023-04-20T15:41:24.335Z,8064
2023-04-20T15:47:47.417Z,2957
2023-04-20T15:54:07.369Z,3037
2023-04-20T16:00:30.390Z,3636
2023-04-20T16:06:50.349Z,1317
2023-04-20T16:13:13.405Z,435
2023-04-20T16:19:33.395Z,785
2023-04-20T16:25:56.379Z,1454
2023-04-20T16:32:16.479Z,1564
2023-04-20T16:38:39.358Z,1638
2023-04-20T16:44:59.396Z,1124
2023-04-20T16:51:22.426Z,537
2023-04-20T16:57:42.393Z,569
2023-04-20T17:04:05.580Z,638
2023-04-20T17:10:25.505Z,914
2023-04-20T17:16:48.424Z,1416
2023-04-20T17:23:08.369Z,1635
2023-04-20T17:29:31.461Z,1267
2023-04-20T17:35:51.413Z,786
2023-04-20T17:42:14.336Z,421
2023-04-20T17:48:34.520Z,426
2023-04-20T17:54:57.539Z,594
2023-04-20T18:01:17.489Z,884
2023-04-20T18:07:40.495Z,311
2023-04-20T18:14:00.387Z,325
2023-04-20T18:20:23.346Z,155
2023-04-20T18:26:43.468Z,93
2023-04-20T18:33:06.458Z,25
2023-04-20T18:39:26.427Z,7
2023-04-20T18:56:22.326Z,0
2023-04-20T19:02:42.504Z,0
2023-04-20T19:09:07.392Z,0
2023-04-20T19:15:25.627Z,0
2023-04-20T19:21:48.380Z,0
2023-04-20T19:28:09.436Z,0
2023-04-20T19:34:32.349Z,0
2023-04-20T19:40:52.378Z,0
2023-04-20T19:47:15.680Z,0
2023-04-20T19:53:35.447Z,0
2023-04-20T19:59:58.438Z,0
2023-04-20T20:06:18.400Z,0
2023-04-20T20:12:41.417Z,0
2023-04-20T20:19:02.117Z,0
2023-04-20T20:25:25.369Z,0
2023-04-20T20:31:45.467Z,0
2023-04-20T20:38:08.433Z,0
2023-04-20T20:44:28.366Z,0
2023-04-20T20:50:51.460Z,0
2023-04-20T20:57:11.383Z,0
2023-04-20T21:03:34.631Z,0
2023-04-20T21:09:54.428Z,0
2023-04-20T21:16:17.426Z,0
2023-04-20T21:22:37.367Z,0
2023-04-20T21:29:00.358Z,0
2023-04-20T21:35:20.313Z,0
2023-04-20T21:41:43.483Z,0
2023-04-20T21:48:03.378Z,0
2023-04-20T21:54:26.453Z,0
2023-04-20T22:00:46.366Z,0
2023-04-20T22:23:43.389Z,0
2023-04-20T22:30:03.391Z,0
2023-04-20T22:36:26.334Z,0
2023-04-20T22:42:46.495Z,0
2023-04-20T22:49:09.378Z,0
2023-04-20T22:55:29.424Z,0
2023-04-20T23:01:52.495Z,0
2023-04-20T23:08:12.340Z,0
2023-04-20T23:14:35.343Z,0
2023-04-20T23:20:55.403Z,0
2023-04-20T23:27:18.383Z,0
2023-04-20T23:33:38.433Z,0
2023-04-20T23:40:01.414Z,0
2023-04-20T23:46:21.364Z,0
2023-04-20T23:52:44.345Z,0
2023-04-20T23:59:04.403Z,0
